createdAt,value
2023-05-05T00:00:55.305Z,735.00
2023-05-05T00:01:55.383Z,736.00
2023-05-05T00:02:55.414Z,736.00
2023-05-05T00:03:55.352Z,738.00
2023-05-05T00:04:55.324Z,740.00
2023-05-05T00:05:55.342Z,740.00
2023-05-05T00:06:56.198Z,742.00
2023-05-05T00:07:55.346Z,740.00
2023-05-05T00:08:55.352Z,740.00
2023-05-05T00:09:55.362Z,740.00
2023-05-05T00:10:55.403Z,741.00
2023-05-05T00:11:55.401Z,740.00
2023-05-05T00:12:55.426Z,739.00
2023-05-05T00:13:55.408Z,740.00
2023-05-05T00:14:55.419Z,741.00
2023-05-05T00:15:55.431Z,746.00
2023-05-05T00:16:55.490Z,742.00
2023-05-05T00:17:55.479Z,742.00
2023-05-05T00:18:55.471Z,741.00
2023-05-05T00:19:55.476Z,739.00
2023-05-05T00:20:55.492Z,737.00
2023-05-05T00:21:55.513Z,737.00
2023-05-05T00:22:55.528Z,736.00
2023-05-05T00:23:55.534Z,736.00
2023-05-05T00:24:55.539Z,733.00
2023-05-05T00:25:55.549Z,734.00
2023-05-05T00:26:55.596Z,730.00
2023-05-05T00:27:55.565Z,730.00
2023-05-05T00:28:55.576Z,734.00
2023-05-05T00:29:55.586Z,735.00
2023-05-05T00:30:55.644Z,737.00
2023-05-05T00:31:55.605Z,736.00
2023-05-05T00:32:55.666Z,736.00
2023-05-05T00:33:55.640Z,735.00
2023-05-05T00:34:55.657Z,733.00
2023-05-05T00:35:55.655Z,733.00
2023-05-05T00:36:55.669Z,734.00
2023-05-05T00:37:55.702Z,733.00
2023-05-05T00:38:55.695Z,733.00
2023-05-05T00:39:55.713Z,734.00
2023-05-05T00:40:55.739Z,733.00
2023-05-05T00:41:55.745Z,730.00
2023-05-05T00:42:55.838Z,733.00
2023-05-05T00:43:55.758Z,733.00
2023-05-05T00:44:55.780Z,730.00
2023-05-05T00:45:55.800Z,732.00
2023-05-05T00:46:55.806Z,732.00
2023-05-05T00:47:55.850Z,729.00
2023-05-05T00:48:55.947Z,727.00
2023-05-05T00:49:55.855Z,725.00
2023-05-05T00:50:55.865Z,723.00
2023-05-05T00:51:55.874Z,723.00
2023-05-05T00:52:55.888Z,723.00
2023-05-05T00:53:55.930Z,725.00
2023-05-05T00:54:55.921Z,728.00
2023-05-05T00:55:55.935Z,731.00
2023-05-05T00:56:55.949Z,730.00
2023-05-05T00:57:55.962Z,728.00
2023-05-05T00:58:56.030Z,724.00
2023-05-05T00:59:55.989Z,723.00
2023-05-05T01:00:55.994Z,724.00
2023-05-05T01:01:56.078Z,726.00
2023-05-05T01:02:56.226Z,723.00
2023-05-05T01:03:56.058Z,723.00
2023-05-05T01:04:56.054Z,719.00
2023-05-05T01:05:56.072Z,720.00
2023-05-05T01:06:56.092Z,718.00
2023-05-05T01:07:56.101Z,719.00
2023-05-05T01:08:56.092Z,720.00
2023-05-05T01:10:18.275Z,721.00
2023-05-05T01:10:56.114Z,722.00
2023-05-05T01:11:56.099Z,721.00
2023-05-05T01:12:56.152Z,722.00
2023-05-05T01:13:56.106Z,723.00
2023-05-05T01:14:56.130Z,723.00
2023-05-05T01:15:56.136Z,719.00
2023-05-05T01:16:56.106Z,718.00
2023-05-05T01:17:56.164Z,717.00
2023-05-05T01:18:56.105Z,716.00
2023-05-05T01:19:56.101Z,718.00
2023-05-05T01:20:56.101Z,719.00
2023-05-05T01:21:56.105Z,717.00
2023-05-05T01:22:56.102Z,717.00
2023-05-05T01:23:56.101Z,718.00
2023-05-05T01:24:56.094Z,716.00
2023-05-05T01:25:56.093Z,715.00
2023-05-05T01:26:56.080Z,711.00
2023-05-05T01:27:56.096Z,712.00
2023-05-05T01:28:56.081Z,709.00
2023-05-05T01:29:56.074Z,705.00
2023-05-05T01:30:56.099Z,704.00
2023-05-05T01:31:56.209Z,703.00
2023-05-05T01:32:56.080Z,703.00
2023-05-05T01:33:56.072Z,702.00
2023-05-05T01:34:56.066Z,703.00
2023-05-05T01:35:56.067Z,704.00
2023-05-05T01:36:56.060Z,705.00
2023-05-05T01:37:56.059Z,705.00
2023-05-05T01:38:56.070Z,706.00
2023-05-05T01:39:56.054Z,708.00
2023-05-05T01:40:56.066Z,711.00
2023-05-05T01:41:56.097Z,709.00
2023-05-05T01:42:56.075Z,708.00
2023-05-05T01:43:56.078Z,707.00
2023-05-05T01:44:56.105Z,707.00
2023-05-05T01:45:56.119Z,706.00
2023-05-05T01:46:56.108Z,702.00
2023-05-05T01:47:56.122Z,703.00
2023-05-05T01:48:56.077Z,704.00
2023-05-05T01:49:56.090Z,707.00
2023-05-05T01:50:56.091Z,705.00
2023-05-05T01:51:56.073Z,706.00
2023-05-05T01:52:56.058Z,705.00
2023-05-05T01:53:56.065Z,706.00
2023-05-05T01:54:56.065Z,707.00
2023-05-05T01:55:56.065Z,706.00
2023-05-05T01:56:56.084Z,705.00
2023-05-05T01:57:56.065Z,705.00
2023-05-05T01:58:56.068Z,706.00
2023-05-05T01:59:56.062Z,705.00
2023-05-05T02:00:56.101Z,701.00
2023-05-05T02:01:56.071Z,698.00
2023-05-05T02:02:56.241Z,697.00
2023-05-05T02:03:56.073Z,697.00
2023-05-05T02:04:56.075Z,699.00
2023-05-05T02:05:56.078Z,700.00
2023-05-05T02:06:56.131Z,701.00
2023-05-05T02:07:56.081Z,702.00
2023-05-05T02:08:56.078Z,702.00
2023-05-05T02:09:56.078Z,701.00
2023-05-05T02:10:56.094Z,700.00
2023-05-05T02:11:56.079Z,699.00
2023-05-05T02:12:56.079Z,698.00
2023-05-05T02:13:56.203Z,698.00
2023-05-05T02:14:56.093Z,697.00
2023-05-05T02:15:56.114Z,696.00
2023-05-05T02:16:56.116Z,696.00
2023-05-05T02:17:56.125Z,697.00
2023-05-05T02:18:56.216Z,697.00
2023-05-05T02:19:56.117Z,696.00
2023-05-05T02:20:56.120Z,695.00
2023-05-05T02:21:56.125Z,695.00
2023-05-05T02:22:56.124Z,695.00
2023-05-05T02:23:56.127Z,694.00
2023-05-05T02:24:56.129Z,694.00
2023-05-05T02:25:56.190Z,693.00
2023-05-05T02:26:56.184Z,690.00
2023-05-05T02:27:56.210Z,689.00
2023-05-05T02:28:56.244Z,690.00
2023-05-05T02:29:56.275Z,691.00
2023-05-05T02:30:56.309Z,689.00
2023-05-05T02:31:56.338Z,691.00
2023-05-05T02:32:56.450Z,693.00
2023-05-05T02:33:56.411Z,694.00
2023-05-05T02:34:56.472Z,697.00
2023-05-05T02:35:56.477Z,695.00
2023-05-05T02:36:56.515Z,692.00
2023-05-05T02:37:56.552Z,691.00
2023-05-05T02:38:56.591Z,691.00
2023-05-05T02:39:56.620Z,691.00
2023-05-05T02:40:56.665Z,693.00
2023-05-05T02:41:56.697Z,690.00
2023-05-05T02:42:57.455Z,687.00
2023-05-05T02:43:56.767Z,688.00
2023-05-05T02:44:56.793Z,686.00
2023-05-05T02:45:56.825Z,686.00
2023-05-05T02:46:56.868Z,686.00
2023-05-05T02:47:56.960Z,687.00
2023-05-05T02:48:56.959Z,688.00
2023-05-05T02:49:56.962Z,689.00
2023-05-05T02:50:57.035Z,689.00
2023-05-05T02:51:57.046Z,689.00
2023-05-05T02:52:57.067Z,690.00
2023-05-05T02:53:57.106Z,688.00
2023-05-05T02:54:57.136Z,686.00
2023-05-05T02:55:57.170Z,689.00
2023-05-05T02:56:57.217Z,686.00
2023-05-05T02:57:57.232Z,687.00
2023-05-05T02:58:57.268Z,686.00
2023-05-05T02:59:57.304Z,686.00
2023-05-05T03:00:57.327Z,685.00
2023-05-05T03:01:57.524Z,686.00
2023-05-05T03:02:57.461Z,688.00
2023-05-05T03:03:57.573Z,687.00
2023-05-05T03:04:57.466Z,686.00
2023-05-05T03:05:57.504Z,688.00
2023-05-05T03:06:57.563Z,688.00
2023-05-05T03:07:57.573Z,690.00
2023-05-05T03:08:57.627Z,688.00
2023-05-05T03:09:57.657Z,687.00
2023-05-05T03:10:57.682Z,688.00
2023-05-05T03:11:57.720Z,688.00
2023-05-05T03:12:57.784Z,686.00
2023-05-05T03:13:57.804Z,683.00
2023-05-05T03:14:57.833Z,680.00
2023-05-05T03:15:57.936Z,679.00
2023-05-05T03:16:57.925Z,677.00
2023-05-05T03:17:57.985Z,678.00
2023-05-05T03:18:57.980Z,678.00
2023-05-05T03:19:58.015Z,680.00
2023-05-05T03:20:58.063Z,682.00
2023-05-05T03:21:58.105Z,682.00
2023-05-05T03:22:58.165Z,681.00
2023-05-05T03:23:58.175Z,684.00
2023-05-05T03:24:58.214Z,683.00
2023-05-05T03:25:58.257Z,681.00
2023-05-05T03:26:58.299Z,680.00
2023-05-05T03:27:58.338Z,679.00
2023-05-05T03:28:58.383Z,680.00
2023-05-05T03:29:58.413Z,679.00
2023-05-05T03:30:58.452Z,679.00
2023-05-05T03:31:58.543Z,679.00
2023-05-05T03:32:58.540Z,680.00
2023-05-05T03:33:58.544Z,681.00
2023-05-05T03:34:58.590Z,681.00
2023-05-05T03:35:58.617Z,682.00
2023-05-05T03:36:58.660Z,678.00
2023-05-05T03:37:58.697Z,674.00
2023-05-05T03:38:58.771Z,674.00
2023-05-05T03:39:58.773Z,673.00
2023-05-05T03:40:58.815Z,675.00
2023-05-05T03:41:58.849Z,672.00
2023-05-05T03:42:58.906Z,673.00
2023-05-05T03:43:58.935Z,671.00
2023-05-05T03:44:58.957Z,674.00
2023-05-05T03:45:59.019Z,677.00
2023-05-05T03:46:59.052Z,679.00
2023-05-05T03:47:59.133Z,679.00
2023-05-05T03:48:59.120Z,678.00
2023-05-05T03:49:59.162Z,677.00
2023-05-05T03:50:59.220Z,678.00
2023-05-05T03:51:59.245Z,678.00
2023-05-05T03:52:59.294Z,678.00
2023-05-05T03:53:59.341Z,676.00
2023-05-05T03:54:59.411Z,678.00
2023-05-05T03:55:59.434Z,679.00
2023-05-05T03:56:59.477Z,677.00
2023-05-05T03:57:59.519Z,678.00
2023-05-05T03:58:59.564Z,677.00
2023-05-05T03:59:59.617Z,675.00
2023-05-05T04:00:59.651Z,674.00
2023-05-05T04:01:59.708Z,674.00
2023-05-05T04:02:59.851Z,673.00
2023-05-05T04:03:59.803Z,675.00
2023-05-05T04:04:59.814Z,675.00
2023-05-05T04:05:59.864Z,673.00
2023-05-05T04:06:59.913Z,671.00
2023-05-05T04:07:59.957Z,672.00
2023-05-05T04:09:00.010Z,671.00
2023-05-05T04:10:00.078Z,671.00
2023-05-05T04:11:00.133Z,669.00
2023-05-05T04:12:00.148Z,671.00
2023-05-05T04:13:00.233Z,670.00
2023-05-05T04:14:00.223Z,667.00
2023-05-05T04:15:00.307Z,669.00
2023-05-05T04:16:00.391Z,664.00
2023-05-05T04:17:00.354Z,664.00
2023-05-05T04:18:00.412Z,665.00
2023-05-05T04:19:00.433Z,663.00
2023-05-05T04:20:00.470Z,664.00
2023-05-05T04:21:00.510Z,663.00
2023-05-05T04:22:00.566Z,664.00
2023-05-05T04:23:00.612Z,663.00
2023-05-05T04:24:00.649Z,664.00
2023-05-05T04:25:00.688Z,665.00
2023-05-05T04:26:00.740Z,666.00
2023-05-05T04:27:00.802Z,666.00
2023-05-05T04:28:00.826Z,666.00
2023-05-05T04:29:00.882Z,666.00
2023-05-05T04:30:00.912Z,666.00
2023-05-05T04:31:01.072Z,669.00
2023-05-05T04:32:01.014Z,667.00
2023-05-05T04:33:01.093Z,668.00
2023-05-05T04:34:01.101Z,669.00
2023-05-05T04:35:01.130Z,667.00
2023-05-05T04:36:01.176Z,668.00
2023-05-05T04:37:01.235Z,666.00
2023-05-05T04:38:01.303Z,664.00
2023-05-05T04:39:01.367Z,665.00
2023-05-05T04:40:01.373Z,665.00
2023-05-05T04:41:01.414Z,664.00
2023-05-05T04:42:01.452Z,668.00
2023-05-05T04:43:01.524Z,668.00
2023-05-05T04:44:01.553Z,667.00
2023-05-05T04:45:01.629Z,667.00
2023-05-05T04:46:01.645Z,665.00
2023-05-05T04:47:01.688Z,666.00
2023-05-05T04:48:01.968Z,664.00
2023-05-05T04:49:01.791Z,665.00
2023-05-05T04:50:01.863Z,666.00
2023-05-05T04:51:01.905Z,664.00
2023-05-05T04:52:01.948Z,662.00
2023-05-05T04:53:01.998Z,659.00
2023-05-05T04:54:02.874Z,655.00
2023-05-05T04:55:02.164Z,653.00
2023-05-05T04:56:02.133Z,654.00
2023-05-05T04:57:02.194Z,659.00
2023-05-05T04:58:02.240Z,660.00
2023-05-05T04:59:02.310Z,659.00
2023-05-05T05:00:02.357Z,657.00
2023-05-05T05:01:02.370Z,657.00
2023-05-05T05:02:02.448Z,658.00
2023-05-05T05:03:02.616Z,659.00
2023-05-05T05:04:02.602Z,660.00
2023-05-05T05:05:02.564Z,659.00
2023-05-05T05:06:02.608Z,659.00
2023-05-05T05:07:02.657Z,661.00
2023-05-05T05:08:02.697Z,659.00
2023-05-05T05:09:02.745Z,658.00
2023-05-05T05:10:02.795Z,658.00
2023-05-05T05:11:02.854Z,660.00
2023-05-05T05:12:02.966Z,659.00
2023-05-05T05:13:02.988Z,658.00
2023-05-05T05:14:02.981Z,657.00
2023-05-05T05:15:03.054Z,656.00
2023-05-05T05:16:03.512Z,655.00
2023-05-05T05:17:03.115Z,656.00
2023-05-05T05:18:03.547Z,657.00
2023-05-05T05:19:03.202Z,659.00
2023-05-05T05:20:03.251Z,658.00
2023-05-05T05:21:03.310Z,658.00
2023-05-05T05:22:03.343Z,660.00
2023-05-05T05:23:03.399Z,665.00
2023-05-05T05:24:03.434Z,669.00
2023-05-05T05:25:03.487Z,679.00
2023-05-05T05:26:03.514Z,683.00
2023-05-05T05:27:03.609Z,689.00
2023-05-05T05:28:10.186Z,695.00
2023-05-05T05:29:03.641Z,719.00
2023-05-05T05:30:03.661Z,726.00
2023-05-05T05:31:03.628Z,726.00
2023-05-05T05:32:03.666Z,722.00
2023-05-05T05:33:03.706Z,728.00
2023-05-05T05:34:03.651Z,730.00
2023-05-05T05:35:03.645Z,732.00
2023-05-05T05:36:03.633Z,734.00
2023-05-05T05:37:03.663Z,739.00
2023-05-05T05:38:03.674Z,741.00
2023-05-05T05:39:03.653Z,757.00
2023-05-05T05:40:03.664Z,772.00
2023-05-05T05:41:03.967Z,787.00
2023-05-05T05:42:03.746Z,798.00
2023-05-05T05:43:03.679Z,801.00
2023-05-05T05:44:03.697Z,805.00
2023-05-05T05:45:03.696Z,810.00
2023-05-05T05:46:06.888Z,827.00
2023-05-05T05:47:04.026Z,836.00
2023-05-05T05:48:04.010Z,838.00
2023-05-05T05:49:03.911Z,843.00
2023-05-05T05:50:03.941Z,847.00
2023-05-05T05:51:03.974Z,846.00
2023-05-05T05:52:05.527Z,849.00
2023-05-05T05:53:07.709Z,851.00
2023-05-05T05:54:19.657Z,853.00
2023-05-05T05:55:05.065Z,854.00
2023-05-05T05:56:04.054Z,850.00
2023-05-05T05:57:07.685Z,842.00
2023-05-05T05:58:04.080Z,842.00
2023-05-05T05:59:04.073Z,846.00
2023-05-05T06:00:11.509Z,844.00
2023-05-05T06:01:04.075Z,843.00
2023-05-05T06:02:20.144Z,841.00
2023-05-05T06:03:04.579Z,841.00
2023-05-05T06:05:04.084Z,836.00
2023-05-05T06:07:19.782Z,837.00
2023-05-05T06:08:05.096Z,836.00
2023-05-05T06:09:04.476Z,839.00
2023-05-05T06:10:18.537Z,837.00
2023-05-05T06:11:04.113Z,839.00
2023-05-05T06:12:04.486Z,839.00
2023-05-05T06:13:04.181Z,843.00
2023-05-05T06:14:04.129Z,843.00
2023-05-05T06:16:07.383Z,843.00
2023-05-05T06:17:05.510Z,842.00
2023-05-05T06:18:04.235Z,840.00
2023-05-05T06:19:04.175Z,841.00
2023-05-05T06:20:07.601Z,841.00
2023-05-05T06:21:04.163Z,843.00
2023-05-05T06:22:04.188Z,842.00
2023-05-05T06:23:04.163Z,842.00
2023-05-05T06:24:04.491Z,838.00
2023-05-05T06:25:04.192Z,833.00
2023-05-05T06:26:04.243Z,835.00
2023-05-05T06:27:04.496Z,837.00
2023-05-05T06:28:04.222Z,835.00
2023-05-05T06:29:04.514Z,837.00
2023-05-05T06:30:04.278Z,838.00
2023-05-05T06:31:04.231Z,835.00
2023-05-05T06:32:04.264Z,833.00
2023-05-05T06:33:04.264Z,832.00
2023-05-05T06:34:04.375Z,835.00
2023-05-05T06:35:04.293Z,836.00
2023-05-05T06:36:04.283Z,835.00
2023-05-05T06:37:04.303Z,834.00
2023-05-05T06:38:11.687Z,834.00
2023-05-05T06:39:04.653Z,833.00
2023-05-05T06:40:04.292Z,831.00
2023-05-05T06:41:04.917Z,829.00
2023-05-05T06:42:11.702Z,829.00
2023-05-05T06:43:04.312Z,829.00
2023-05-05T06:44:04.500Z,829.00
2023-05-05T06:45:04.304Z,826.00
2023-05-05T06:46:04.754Z,828.00
2023-05-05T06:47:04.442Z,831.00
2023-05-05T06:48:04.369Z,832.00
2023-05-05T06:49:04.509Z,836.00
2023-05-05T06:50:04.519Z,837.00
2023-05-05T06:51:11.719Z,840.00
2023-05-05T06:52:04.353Z,840.00
2023-05-05T06:53:04.345Z,839.00
2023-05-05T12:17:24.408Z,673.00
2023-05-05T12:18:25.157Z,665.00
2023-05-05T12:19:25.141Z,663.00
2023-05-05T12:20:25.119Z,660.00
2023-05-05T12:21:25.099Z,657.00
2023-05-05T12:22:25.082Z,656.00
2023-05-05T12:23:25.061Z,653.00
2023-05-05T12:24:25.047Z,656.00
2023-05-05T12:25:25.027Z,656.00
2023-05-05T12:26:25.006Z,658.00
2023-05-05T12:27:24.990Z,657.00
2023-05-05T12:28:24.972Z,656.00
2023-05-05T12:29:24.975Z,655.00
2023-05-05T12:30:24.974Z,655.00
2023-05-05T12:31:25.012Z,656.00
2023-05-05T12:32:24.934Z,658.00
2023-05-05T12:33:25.106Z,658.00
2023-05-05T12:34:24.873Z,658.00
2023-05-05T12:35:24.859Z,660.00
2023-05-05T12:36:24.840Z,662.00
2023-05-05T12:37:24.824Z,664.00
2023-05-05T12:38:24.832Z,663.00
2023-05-05T12:39:24.796Z,661.00
2023-05-05T12:40:24.800Z,663.00
2023-05-05T12:41:24.757Z,666.00
2023-05-05T12:42:24.747Z,667.00
2023-05-05T12:43:24.738Z,666.00
2023-05-05T12:44:24.723Z,669.00
2023-05-05T12:45:24.703Z,669.00
2023-05-05T12:46:24.704Z,668.00
2023-05-05T12:47:24.681Z,670.00
2023-05-05T12:48:24.673Z,671.00
2023-05-05T12:49:24.819Z,673.00
2023-05-05T12:50:24.638Z,674.00
2023-05-05T12:51:24.620Z,675.00
2023-05-05T12:52:24.634Z,674.00
2023-05-05T12:53:24.598Z,671.00
2023-05-05T12:54:24.591Z,667.00
2023-05-05T12:55:24.562Z,667.00
2023-05-05T12:56:24.631Z,668.00
2023-05-05T12:57:24.665Z,667.00
2023-05-05T12:58:24.636Z,670.00
2023-05-05T12:59:24.703Z,669.00
2023-05-05T13:00:24.684Z,669.00
2023-05-05T13:01:24.740Z,672.00
2023-05-05T13:02:24.793Z,674.00
2023-05-05T13:03:24.764Z,673.00
2023-05-05T13:04:24.754Z,672.00
2023-05-05T13:05:25.489Z,670.00
2023-05-05T13:06:24.797Z,669.00
2023-05-05T13:07:24.817Z,668.00
2023-05-05T13:08:24.835Z,669.00
2023-05-05T13:09:24.879Z,670.00
2023-05-05T13:10:24.926Z,671.00
2023-05-05T13:11:24.901Z,670.00
2023-05-05T13:12:25.218Z,670.00
2023-05-05T13:13:25.411Z,675.00
2023-05-05T13:14:24.976Z,674.00
2023-05-05T13:15:25.000Z,673.00
2023-05-05T13:16:25.473Z,673.00
2023-05-05T13:17:25.077Z,674.00
2023-05-05T13:18:25.049Z,674.00
2023-05-05T13:19:25.110Z,672.00
2023-05-05T13:20:25.090Z,672.00
2023-05-05T13:21:25.266Z,671.00
2023-05-05T13:22:25.149Z,672.00
2023-05-05T13:23:25.946Z,671.00
2023-05-05T13:24:34.501Z,669.00
2023-05-05T13:25:25.409Z,668.00
2023-05-05T13:26:25.150Z,668.00
2023-05-05T13:27:25.146Z,670.00
2023-05-05T13:28:25.132Z,670.00
2023-05-05T13:29:29.549Z,669.00
2023-05-05T13:30:25.096Z,670.00
2023-05-05T13:31:25.115Z,667.00
2023-05-05T13:32:25.088Z,664.00
2023-05-05T13:33:25.031Z,665.00
2023-05-05T13:34:25.022Z,665.00
2023-05-05T13:35:25.000Z,664.00
2023-05-05T13:36:24.977Z,665.00
2023-05-05T13:37:25.066Z,666.00
2023-05-05T13:38:24.930Z,666.00
2023-05-05T13:39:24.925Z,667.00
2023-05-05T13:40:26.075Z,668.00
2023-05-05T13:41:24.885Z,667.00
2023-05-05T13:42:24.861Z,670.00
2023-05-05T13:43:24.846Z,675.00
2023-05-05T13:44:24.844Z,676.00
2023-05-05T13:45:24.806Z,674.00
2023-05-05T13:46:24.835Z,673.00
2023-05-05T13:47:24.851Z,672.00
2023-05-05T13:48:24.908Z,670.00
2023-05-05T13:49:24.729Z,669.00
2023-05-05T13:50:24.722Z,670.00
2023-05-05T13:51:24.686Z,670.00
2023-05-05T13:52:24.666Z,670.00
2023-05-05T13:53:24.746Z,670.00
2023-05-05T13:54:24.647Z,672.00
2023-05-05T13:55:24.619Z,673.00
2023-05-05T13:56:24.595Z,672.00
2023-05-05T13:57:24.590Z,676.00
2023-05-05T13:58:24.557Z,677.00
2023-05-05T13:59:24.546Z,681.00
2023-05-05T14:00:24.537Z,681.00
2023-05-05T14:01:24.992Z,681.00
2023-05-05T14:02:24.578Z,680.00
2023-05-05T14:03:24.516Z,681.00
2023-05-05T14:04:24.715Z,682.00
2023-05-05T14:05:24.491Z,684.00
2023-05-05T14:06:24.457Z,686.00
2023-05-05T14:07:24.464Z,689.00
2023-05-05T14:08:24.478Z,691.00
2023-05-05T14:09:25.080Z,693.00
2023-05-05T14:10:24.420Z,694.00
2023-05-05T14:11:24.400Z,695.00
2023-05-05T14:12:24.372Z,697.00
2023-05-05T14:13:24.359Z,700.00
2023-05-05T14:14:24.424Z,702.00
2023-05-05T14:15:24.371Z,701.00
2023-05-05T14:16:24.375Z,705.00
2023-05-05T14:17:24.397Z,708.00
2023-05-05T14:18:24.388Z,710.00
2023-05-05T14:19:24.403Z,714.00
2023-05-05T14:20:24.415Z,716.00
2023-05-05T14:21:24.442Z,717.00
2023-05-05T14:22:24.453Z,721.00
2023-05-05T14:23:24.470Z,723.00
2023-05-05T14:24:24.483Z,725.00
2023-05-05T14:25:24.601Z,730.00
2023-05-05T14:26:24.555Z,732.00
2023-05-05T14:27:24.542Z,732.00
2023-05-05T14:28:25.328Z,733.00
2023-05-05T14:29:24.575Z,736.00
2023-05-05T14:30:24.590Z,740.00
2023-05-05T14:31:24.668Z,739.00
2023-05-05T14:32:24.685Z,739.00
2023-05-05T14:33:24.681Z,739.00
2023-05-05T14:34:24.937Z,738.00
2023-05-05T14:35:24.680Z,741.00
2023-05-05T14:36:24.692Z,741.00
2023-05-05T14:37:24.723Z,739.00
2023-05-05T14:38:24.801Z,740.00
2023-05-05T14:39:24.943Z,744.00
2023-05-05T14:40:24.772Z,746.00
2023-05-05T14:41:24.885Z,749.00
2023-05-05T14:42:24.798Z,753.00
2023-05-05T14:43:24.818Z,758.00
2023-05-05T14:44:24.928Z,763.00
2023-05-05T14:45:24.864Z,765.00
2023-05-05T14:46:25.047Z,767.00
2023-05-05T14:47:24.898Z,768.00
2023-05-05T14:48:24.882Z,774.00
2023-05-05T14:49:24.900Z,780.00
2023-05-05T14:50:24.933Z,784.00
2023-05-05T14:51:24.929Z,789.00
2023-05-05T14:52:24.934Z,792.00
2023-05-05T14:53:24.961Z,795.00
2023-05-05T14:54:28.653Z,797.00
2023-05-05T14:55:24.982Z,796.00
2023-05-05T14:56:24.982Z,800.00
2023-05-05T14:57:25.032Z,804.00
2023-05-05T14:58:24.916Z,802.00
2023-05-05T14:59:24.913Z,804.00
2023-05-05T15:00:24.911Z,806.00
2023-05-05T15:01:24.961Z,808.00
2023-05-05T15:02:24.974Z,812.00
2023-05-05T15:03:24.998Z,814.00
2023-05-05T15:04:24.862Z,815.00
2023-05-05T15:05:24.852Z,817.00
2023-05-05T15:06:24.839Z,820.00
2023-05-05T15:07:24.827Z,821.00
2023-05-05T15:08:24.835Z,822.00
2023-05-05T15:09:24.830Z,825.00
2023-05-05T15:10:24.852Z,827.00
2023-05-05T15:11:24.862Z,831.00
2023-05-05T15:12:24.879Z,836.00
2023-05-05T15:13:24.992Z,838.00
2023-05-05T15:14:24.896Z,837.00
2023-05-05T15:15:25.079Z,835.00
2023-05-05T15:16:24.997Z,836.00
2023-05-05T15:17:24.959Z,838.00
2023-05-05T15:18:24.956Z,839.00
2023-05-05T15:19:24.959Z,838.00
2023-05-05T15:20:24.971Z,842.00
2023-05-05T15:21:24.992Z,843.00
2023-05-05T15:22:24.987Z,847.00
2023-05-05T15:23:25.005Z,850.00
2023-05-05T15:24:25.020Z,851.00
2023-05-05T15:25:25.033Z,851.00
2023-05-05T15:26:25.054Z,849.00
2023-05-05T15:27:25.134Z,851.00
2023-05-05T15:28:25.066Z,851.00
2023-05-05T15:29:25.179Z,851.00
2023-05-05T15:30:25.093Z,850.00
2023-05-05T15:31:25.126Z,850.00
2023-05-05T15:32:25.157Z,853.00
2023-05-05T15:33:25.114Z,854.00
2023-05-05T15:34:25.139Z,853.00
2023-05-05T15:35:25.133Z,853.00
2023-05-05T15:36:25.153Z,855.00
2023-05-05T15:37:25.157Z,854.00
2023-05-05T15:38:25.168Z,855.00
2023-05-05T15:39:25.186Z,854.00
2023-05-05T15:40:25.192Z,853.00
2023-05-05T15:41:25.206Z,854.00
2023-05-05T15:42:25.207Z,858.00
2023-05-05T15:43:25.220Z,859.00
2023-05-05T15:44:25.220Z,858.00
2023-05-05T15:45:25.338Z,858.00
2023-05-05T15:46:25.290Z,856.00
2023-05-05T15:47:25.299Z,855.00
2023-05-05T15:48:25.270Z,856.00
2023-05-05T15:49:25.285Z,853.00
2023-05-05T15:50:25.314Z,852.00
2023-05-05T15:51:25.304Z,852.00
2023-05-05T15:52:25.324Z,854.00
2023-05-05T15:53:25.329Z,852.00
2023-05-05T15:54:25.347Z,856.00
2023-05-05T15:55:25.357Z,857.00
2023-05-05T15:56:25.364Z,857.00
2023-05-05T15:57:25.378Z,855.00
2023-05-05T15:58:25.401Z,852.00
2023-05-05T15:59:25.394Z,853.00
2023-05-05T16:00:25.406Z,853.00
2023-05-05T16:01:25.599Z,858.00
2023-05-05T16:02:25.518Z,859.00
2023-05-05T16:03:25.501Z,858.00
2023-05-05T16:04:25.450Z,856.00
2023-05-05T16:05:25.449Z,852.00
2023-05-05T16:06:25.462Z,853.00
2023-05-05T16:07:25.463Z,854.00
2023-05-05T16:08:25.487Z,854.00
2023-05-05T16:09:25.484Z,853.00
2023-05-05T16:10:25.477Z,849.00
2023-05-05T16:11:25.490Z,850.00
2023-05-05T16:12:25.579Z,849.00
2023-05-05T16:13:25.499Z,850.00
2023-05-05T16:14:25.497Z,852.00
2023-05-05T16:15:25.508Z,848.00
2023-05-05T16:16:25.559Z,849.00
2023-05-05T16:17:25.690Z,848.00
2023-05-05T16:18:25.516Z,845.00
2023-05-05T16:19:25.526Z,846.00
2023-05-05T16:20:25.537Z,845.00
2023-05-05T16:21:25.536Z,845.00
2023-05-05T16:22:25.635Z,843.00
2023-05-05T16:23:25.564Z,839.00
2023-05-05T16:24:25.572Z,837.00
2023-05-05T16:25:25.597Z,836.00
2023-05-05T16:26:25.589Z,838.00
2023-05-05T16:27:25.593Z,836.00
2023-05-05T16:28:25.609Z,838.00
2023-05-05T16:29:25.611Z,837.00
2023-05-05T16:30:25.625Z,836.00
2023-05-05T16:31:25.641Z,837.00
2023-05-05T16:32:25.674Z,836.00
2023-05-05T16:33:25.762Z,838.00
2023-05-05T16:34:25.654Z,841.00
2023-05-05T16:35:25.663Z,837.00
2023-05-05T16:36:25.675Z,837.00
2023-05-05T16:37:25.663Z,836.00
2023-05-05T16:38:25.677Z,836.00
2023-05-05T16:39:25.683Z,837.00
2023-05-05T16:40:25.670Z,839.00
2023-05-05T16:41:25.849Z,839.00
2023-05-05T16:42:25.692Z,838.00
2023-05-05T16:43:25.741Z,839.00
2023-05-05T16:44:25.698Z,836.00
2023-05-05T16:45:25.693Z,836.00
2023-05-05T16:46:25.749Z,837.00
2023-05-05T16:47:25.720Z,834.00
2023-05-05T16:48:25.719Z,834.00
2023-05-05T16:49:25.789Z,833.00
2023-05-05T16:50:25.718Z,832.00
2023-05-05T16:51:25.694Z,830.00
2023-05-05T16:52:25.695Z,830.00
2023-05-05T16:53:25.685Z,832.00
2023-05-05T16:54:25.699Z,833.00
2023-05-05T16:55:25.700Z,833.00
2023-05-05T16:56:25.715Z,830.00
2023-05-05T16:57:25.709Z,831.00
2023-05-05T16:58:25.701Z,830.00
2023-05-05T16:59:25.709Z,828.00
2023-05-05T17:00:25.704Z,830.00
2023-05-05T17:01:25.746Z,830.00
2023-05-05T17:02:25.753Z,831.00
2023-05-05T17:03:25.735Z,833.00
2023-05-05T17:04:25.719Z,834.00
2023-05-05T17:05:25.895Z,833.00
2023-05-05T17:06:25.746Z,832.00
2023-05-05T17:07:25.723Z,830.00
2023-05-05T17:08:25.725Z,829.00
2023-05-05T17:09:25.731Z,830.00
2023-05-05T17:10:25.749Z,832.00
2023-05-05T17:11:25.745Z,832.00
2023-05-05T17:12:25.744Z,831.00
2023-05-05T17:13:25.759Z,828.00
2023-05-05T17:14:25.756Z,829.00
2023-05-05T17:15:25.768Z,831.00
2023-05-05T17:16:25.798Z,832.00
2023-05-05T17:17:25.852Z,830.00
2023-05-05T17:18:25.792Z,830.00
2023-05-05T17:19:25.795Z,829.00
2023-05-05T17:20:25.806Z,829.00
2023-05-05T17:21:25.837Z,831.00
2023-05-05T17:22:25.824Z,831.00
2023-05-05T17:23:25.831Z,831.00
2023-05-05T17:24:25.844Z,830.00
2023-05-05T17:25:25.847Z,831.00
2023-05-05T17:26:25.879Z,831.00
2023-05-05T17:27:25.862Z,829.00
2023-05-05T17:28:25.857Z,829.00
2023-05-05T17:29:25.878Z,827.00
2023-05-05T17:30:25.904Z,829.00
2023-05-05T17:31:26.012Z,829.00
2023-05-05T17:32:25.967Z,829.00
2023-05-05T17:33:25.913Z,829.00
2023-05-05T17:34:25.926Z,830.00
2023-05-05T17:35:25.937Z,831.00
2023-05-05T17:36:25.954Z,831.00
2023-05-05T17:37:26.127Z,830.00
2023-05-05T17:38:25.985Z,828.00
2023-05-05T17:39:25.990Z,828.00
2023-05-05T17:40:26.543Z,825.00
2023-05-05T17:41:26.670Z,823.00
2023-05-05T17:42:26.787Z,823.00
2023-05-05T17:43:26.074Z,821.00
2023-05-05T17:44:26.853Z,822.00
2023-05-05T17:45:26.389Z,820.00
2023-05-05T17:46:26.516Z,822.00
2023-05-05T17:47:26.453Z,821.00
2023-05-05T17:48:26.178Z,821.00
2023-05-05T17:49:26.111Z,819.00
2023-05-05T17:50:26.126Z,816.00
2023-05-05T17:51:26.152Z,815.00
2023-05-05T17:52:26.161Z,815.00
2023-05-05T17:53:26.283Z,814.00
2023-05-05T17:54:26.196Z,812.00
2023-05-05T17:55:26.237Z,811.00